sensor_id;sensor_type;location;lat;lon;timestamp;P1;durP1;ratioP1;P2;durP2;ratioP2
69047;SDS011;56119;50.118;8.642;2023-06-10T00:00:55;11.52;;;9.70;;
69047;SDS011;56119;50.118;8.642;2023-06-10T00:03:21;11.30;;;9.20;;
69047;SDS011;56119;50.118;8.642;2023-06-10T00:05:49;11.27;;;8.77;;
69047;SDS011;56119;50.118;8.642;2023-06-10T00:08:15;10.40;;;9.10;;
69047;SDS011;56119;50.118;8.642;2023-06-10T00:10:44;10.55;;;9.55;;
69047;SDS011;56119;50.118;8.642;2023-06-10T00:13:10;10.95;;;8.63;;
69047;SDS011;56119;50.118;8.642;2023-06-10T00:15:36;9.70;;;8.73;;
69047;SDS011;56119;50.118;8.642;2023-06-10T00:18:03;11.32;;;9.43;;
69047;SDS011;56119;50.118;8.642;2023-06-10T00:20:29;13.27;;;10.05;;
69047;SDS011;56119;50.118;8.642;2023-06-10T00:22:55;12.18;;;9.90;;
69047;SDS011;56119;50.118;8.642;2023-06-10T00:25:22;12.02;;;9.25;;
69047;SDS011;56119;50.118;8.642;2023-06-10T00:27:48;11.05;;;9.27;;
69047;SDS011;56119;50.118;8.642;2023-06-10T00:30:14;12.50;;;9.40;;
69047;SDS011;56119;50.118;8.642;2023-06-10T00:32:40;9.63;;;8.63;;
69047;SDS011;56119;50.118;8.642;2023-06-10T00:35:06;10.52;;;9.43;;
69047;SDS011;56119;50.118;8.642;2023-06-10T00:37:33;12.15;;;9.13;;
69047;SDS011;56119;50.118;8.642;2023-06-10T00:40:00;10.90;;;9.48;;
69047;SDS011;56119;50.118;8.642;2023-06-10T00:42:26;11.48;;;9.25;;
69047;SDS011;56119;50.118;8.642;2023-06-10T00:44:53;11.30;;;8.98;;
69047;SDS011;56119;50.118;8.642;2023-06-10T00:47:19;10.48;;;9.32;;
69047;SDS011;56119;50.118;8.642;2023-06-10T00:49:46;11.60;;;9.18;;
69047;SDS011;56119;50.118;8.642;2023-06-10T00:52:12;12.68;;;9.63;;
69047;SDS011;56119;50.118;8.642;2023-06-10T00:54:38;11.43;;;9.65;;
69047;SDS011;56119;50.118;8.642;2023-06-10T00:57:04;12.38;;;8.88;;
69047;SDS011;56119;50.118;8.642;2023-06-10T00:59:31;10.85;;;8.93;;
69047;SDS011;56119;50.118;8.642;2023-06-10T01:01:57;10.75;;;9.65;;
69047;SDS011;56119;50.118;8.642;2023-06-10T01:04:23;9.90;;;8.95;;
69047;SDS011;56119;50.118;8.642;2023-06-10T01:09:23;12.05;;;9.77;;
69047;SDS011;56119;50.118;8.642;2023-06-10T01:11:58;9.95;;;8.95;;
69047;SDS011;56119;50.118;8.642;2023-06-10T01:14:28;10.23;;;8.75;;
69047;SDS011;56119;50.118;8.642;2023-06-10T01:16:56;9.85;;;8.60;;
69047;SDS011;56119;50.118;8.642;2023-06-10T01:19:22;11.40;;;10.20;;
69047;SDS011;56119;50.118;8.642;2023-06-10T01:21:49;12.88;;;9.73;;
69047;SDS011;56119;50.118;8.642;2023-06-10T01:24:15;11.65;;;8.73;;
69047;SDS011;56119;50.118;8.642;2023-06-10T01:26:43;11.38;;;10.18;;
69047;SDS011;56119;50.118;8.642;2023-06-10T01:29:28;13.70;;;9.10;;
69047;SDS011;56119;50.118;8.642;2023-06-10T01:32:01;10.20;;;9.07;;
69047;SDS011;56119;50.118;8.642;2023-06-10T01:34:29;12.05;;;8.90;;
69047;SDS011;56119;50.118;8.642;2023-06-10T01:36:56;9.90;;;8.90;;
69047;SDS011;56119;50.118;8.642;2023-06-10T01:39:24;10.43;;;8.95;;
69047;SDS011;56119;50.118;8.642;2023-06-10T01:41:51;10.73;;;8.70;;
69047;SDS011;56119;50.118;8.642;2023-06-10T01:44:23;10.77;;;9.45;;
69047;SDS011;56119;50.118;8.642;2023-06-10T01:46:49;11.48;;;8.68;;
69047;SDS011;56119;50.118;8.642;2023-06-10T01:49:15;10.93;;;8.88;;
69047;SDS011;56119;50.118;8.642;2023-06-10T01:51:41;10.57;;;9.10;;
69047;SDS011;56119;50.118;8.642;2023-06-10T01:54:07;9.95;;;8.60;;
69047;SDS011;56119;50.118;8.642;2023-06-10T01:56:33;11.18;;;9.77;;
69047;SDS011;56119;50.118;8.642;2023-06-10T01:58:59;10.60;;;9.25;;
69047;SDS011;56119;50.118;8.642;2023-06-10T02:01:25;9.63;;;8.63;;
69047;SDS011;56119;50.118;8.642;2023-06-10T02:03:51;11.13;;;8.95;;
69047;SDS011;56119;50.118;8.642;2023-06-10T02:06:17;10.15;;;8.77;;
69047;SDS011;56119;50.118;8.642;2023-06-10T02:08:43;9.50;;;8.60;;
69047;SDS011;56119;50.118;8.642;2023-06-10T02:11:09;10.82;;;9.73;;
69047;SDS011;56119;50.118;8.642;2023-06-10T02:13:35;9.90;;;8.90;;
69047;SDS011;56119;50.118;8.642;2023-06-10T02:16:01;10.52;;;8.63;;
69047;SDS011;56119;50.118;8.642;2023-06-10T02:18:27;9.93;;;8.93;;
69047;SDS011;56119;50.118;8.642;2023-06-10T02:20:53;10.00;;;9.05;;
69047;SDS011;56119;50.118;8.642;2023-06-10T02:23:19;11.70;;;8.43;;
69047;SDS011;56119;50.118;8.642;2023-06-10T02:25:45;9.60;;;8.65;;
69047;SDS011;56119;50.118;8.642;2023-06-10T02:28:13;9.30;;;8.30;;
69047;SDS011;56119;50.118;8.642;2023-06-10T02:30:40;11.07;;;9.05;;
69047;SDS011;56119;50.118;8.642;2023-06-10T02:33:06;10.18;;;8.95;;
69047;SDS011;56119;50.118;8.642;2023-06-10T02:35:35;10.95;;;9.55;;
69047;SDS011;56119;50.118;8.642;2023-06-10T02:38:01;11.23;;;8.73;;
69047;SDS011;56119;50.118;8.642;2023-06-10T02:40:27;9.32;;;8.43;;
69047;SDS011;56119;50.118;8.642;2023-06-10T02:42:53;9.60;;;8.60;;
69047;SDS011;56119;50.118;8.642;2023-06-10T02:45:19;10.07;;;9.05;;
69047;SDS011;56119;50.118;8.642;2023-06-10T02:47:45;10.10;;;8.82;;
69047;SDS011;56119;50.118;8.642;2023-06-10T02:50:11;10.80;;;9.57;;
69047;SDS011;56119;50.118;8.642;2023-06-10T02:52:37;10.75;;;8.38;;
69047;SDS011;56119;50.118;8.642;2023-06-10T02:55:03;11.95;;;8.82;;
69047;SDS011;56119;50.118;8.642;2023-06-10T02:57:30;11.27;;;9.35;;
69047;SDS011;56119;50.118;8.642;2023-06-10T02:59:56;11.02;;;8.98;;
69047;SDS011;56119;50.118;8.642;2023-06-10T03:02:23;11.80;;;10.10;;
69047;SDS011;56119;50.118;8.642;2023-06-10T03:04:53;9.65;;;8.27;;
69047;SDS011;56119;50.118;8.642;2023-06-10T03:07:20;10.05;;;9.05;;
69047;SDS011;56119;50.118;8.642;2023-06-10T03:09:46;11.13;;;9.05;;
69047;SDS011;56119;50.118;8.642;2023-06-10T03:12:12;10.02;;;9.02;;
69047;SDS011;56119;50.118;8.642;2023-06-10T03:14:38;9.93;;;8.43;;
69047;SDS011;56119;50.118;8.642;2023-06-10T03:17:04;9.45;;;7.93;;
69047;SDS011;56119;50.118;8.642;2023-06-10T03:19:31;10.77;;;8.35;;
69047;SDS011;56119;50.118;8.642;2023-06-10T03:22:07;10.15;;;8.57;;
69047;SDS011;56119;50.118;8.642;2023-06-10T03:24:33;9.98;;;8.77;;
69047;SDS011;56119;50.118;8.642;2023-06-10T03:27:00;10.30;;;9.18;;
69047;SDS011;56119;50.118;8.642;2023-06-10T03:29:26;9.75;;;8.45;;
69047;SDS011;56119;50.118;8.642;2023-06-10T03:31:52;10.00;;;8.85;;
69047;SDS011;56119;50.118;8.642;2023-06-10T03:34:18;11.00;;;8.98;;
69047;SDS011;56119;50.118;8.642;2023-06-10T03:36:45;9.50;;;8.40;;
69047;SDS011;56119;50.118;8.642;2023-06-10T03:39:10;11.68;;;8.85;;
69047;SDS011;56119;50.118;8.642;2023-06-10T03:41:36;9.95;;;8.95;;
69047;SDS011;56119;50.118;8.642;2023-06-10T03:44:02;9.38;;;8.38;;
69047;SDS011;56119;50.118;8.642;2023-06-10T03:46:29;10.95;;;8.25;;
69047;SDS011;56119;50.118;8.642;2023-06-10T03:48:54;10.57;;;8.15;;
69047;SDS011;56119;50.118;8.642;2023-06-10T03:51:21;9.90;;;8.82;;
69047;SDS011;56119;50.118;8.642;2023-06-10T03:53:47;11.48;;;8.68;;
69047;SDS011;56119;50.118;8.642;2023-06-10T03:56:13;13.25;;;9.23;;
69047;SDS011;56119;50.118;8.642;2023-06-10T03:58:39;9.38;;;8.38;;
69047;SDS011;56119;50.118;8.642;2023-06-10T04:01:05;11.57;;;8.63;;
69047;SDS011;56119;50.118;8.642;2023-06-10T04:03:32;9.95;;;7.75;;
69047;SDS011;56119;50.118;8.642;2023-06-10T04:05:58;10.30;;;8.43;;
69047;SDS011;56119;50.118;8.642;2023-06-10T04:08:24;9.27;;;7.80;;
69047;SDS011;56119;50.118;8.642;2023-06-10T04:10:50;8.98;;;8.07;;
69047;SDS011;56119;50.118;8.642;2023-06-10T04:13:16;9.65;;;8.10;;
69047;SDS011;56119;50.118;8.642;2023-06-10T04:15:43;10.95;;;8.27;;
69047;SDS011;56119;50.118;8.642;2023-06-10T04:18:09;10.32;;;8.13;;
69047;SDS011;56119;50.118;8.642;2023-06-10T04:20:35;10.90;;;9.52;;
69047;SDS011;56119;50.118;8.642;2023-06-10T04:23:02;8.70;;;7.80;;
69047;SDS011;56119;50.118;8.642;2023-06-10T04:25:28;9.73;;;7.97;;
69047;SDS011;56119;50.118;8.642;2023-06-10T04:27:54;10.52;;;7.80;;
69047;SDS011;56119;50.118;8.642;2023-06-10T04:30:21;9.95;;;8.35;;
69047;SDS011;56119;50.118;8.642;2023-06-10T04:32:47;10.15;;;8.55;;
69047;SDS011;56119;50.118;8.642;2023-06-10T04:35:15;10.48;;;9.05;;
69047;SDS011;56119;50.118;8.642;2023-06-10T04:37:41;10.80;;;8.07;;
69047;SDS011;56119;50.118;8.642;2023-06-10T04:40:08;9.82;;;7.85;;
69047;SDS011;56119;50.118;8.642;2023-06-10T04:42:35;9.15;;;8.25;;
69047;SDS011;56119;50.118;8.642;2023-06-10T04:45:01;9.80;;;7.65;;
69047;SDS011;56119;50.118;8.642;2023-06-10T04:47:28;11.05;;;8.60;;
69047;SDS011;56119;50.118;8.642;2023-06-10T04:49:57;10.13;;;8.25;;
69047;SDS011;56119;50.118;8.642;2023-06-10T04:52:23;10.52;;;8.57;;
69047;SDS011;56119;50.118;8.642;2023-06-10T04:54:49;10.02;;;8.90;;
69047;SDS011;56119;50.118;8.642;2023-06-10T04:57:15;11.52;;;8.00;;
69047;SDS011;56119;50.118;8.642;2023-06-10T04:59:41;11.10;;;8.77;;
69047;SDS011;56119;50.118;8.642;2023-06-10T05:02:07;9.32;;;7.97;;
69047;SDS011;56119;50.118;8.642;2023-06-10T05:04:33;12.15;;;8.55;;
69047;SDS011;56119;50.118;8.642;2023-06-10T05:06:59;10.45;;;8.48;;
69047;SDS011;56119;50.118;8.642;2023-06-10T05:09:25;9.27;;;7.78;;
69047;SDS011;56119;50.118;8.642;2023-06-10T05:11:51;9.65;;;7.35;;
69047;SDS011;56119;50.118;8.642;2023-06-10T05:14:18;10.55;;;7.65;;
69047;SDS011;56119;50.118;8.642;2023-06-10T05:16:45;9.38;;;7.97;;
69047;SDS011;56119;50.118;8.642;2023-06-10T05:19:12;8.38;;;7.45;;
69047;SDS011;56119;50.118;8.642;2023-06-10T05:21:38;9.88;;;8.02;;
69047;SDS011;56119;50.118;8.642;2023-06-10T05:24:04;9.20;;;7.22;;
69047;SDS011;56119;50.118;8.642;2023-06-10T05:26:30;8.95;;;7.22;;
69047;SDS011;56119;50.118;8.642;2023-06-10T05:29:02;9.30;;;7.55;;
69047;SDS011;56119;50.118;8.642;2023-06-10T05:31:28;9.68;;;7.43;;
69047;SDS011;56119;50.118;8.642;2023-06-10T05:33:54;11.15;;;7.32;;
69047;SDS011;56119;50.118;8.642;2023-06-10T05:36:20;11.63;;;7.72;;
69047;SDS011;56119;50.118;8.642;2023-06-10T05:38:46;10.02;;;7.30;;
69047;SDS011;56119;50.118;8.642;2023-06-10T05:41:12;8.90;;;7.03;;
69047;SDS011;56119;50.118;8.642;2023-06-10T05:43:38;9.32;;;7.47;;
69047;SDS011;56119;50.118;8.642;2023-06-10T05:46:05;8.52;;;6.80;;
69047;SDS011;56119;50.118;8.642;2023-06-10T05:48:31;8.93;;;7.05;;
69047;SDS011;56119;50.118;8.642;2023-06-10T05:50:57;9.45;;;7.25;;
69047;SDS011;56119;50.118;8.642;2023-06-10T05:53:23;8.63;;;7.20;;
69047;SDS011;56119;50.118;8.642;2023-06-10T05:55:49;10.35;;;7.45;;
69047;SDS011;56119;50.118;8.642;2023-06-10T05:58:15;8.07;;;7.28;;
69047;SDS011;56119;50.118;8.642;2023-06-10T06:00:41;7.97;;;6.30;;
69047;SDS011;56119;50.118;8.642;2023-06-10T06:03:07;9.05;;;6.85;;
69047;SDS011;56119;50.118;8.642;2023-06-10T06:05:42;7.80;;;6.93;;
69047;SDS011;56119;50.118;8.642;2023-06-10T06:08:11;8.93;;;7.60;;
69047;SDS011;56119;50.118;8.642;2023-06-10T06:10:43;9.55;;;7.22;;
69047;SDS011;56119;50.118;8.642;2023-06-10T06:13:09;7.38;;;6.68;;
69047;SDS011;56119;50.118;8.642;2023-06-10T06:15:35;8.02;;;7.20;;
69047;SDS011;56119;50.118;8.642;2023-06-10T06:18:13;8.10;;;6.65;;
69047;SDS011;56119;50.118;8.642;2023-06-10T06:20:40;7.80;;;6.78;;
69047;SDS011;56119;50.118;8.642;2023-06-10T06:23:06;9.23;;;7.35;;
69047;SDS011;56119;50.118;8.642;2023-06-10T06:25:48;8.30;;;7.50;;
69047;SDS011;56119;50.118;8.642;2023-06-10T06:28:14;9.02;;;6.72;;
69047;SDS011;56119;50.118;8.642;2023-06-10T06:30:40;7.82;;;7.00;;
69047;SDS011;56119;50.118;8.642;2023-06-10T06:33:06;10.65;;;7.88;;
69047;SDS011;56119;50.118;8.642;2023-06-10T06:35:32;9.82;;;7.25;;
69047;SDS011;56119;50.118;8.642;2023-06-10T06:37:59;11.32;;;6.97;;
69047;SDS011;56119;50.118;8.642;2023-06-10T06:40:25;8.45;;;7.55;;
69047;SDS011;56119;50.118;8.642;2023-06-10T06:42:51;8.27;;;6.80;;
69047;SDS011;56119;50.118;8.642;2023-06-10T06:45:16;8.13;;;7.03;;
69047;SDS011;56119;50.118;8.642;2023-06-10T06:47:43;7.20;;;6.03;;
69047;SDS011;56119;50.118;8.642;2023-06-10T06:50:09;10.23;;;7.53;;
69047;SDS011;56119;50.118;8.642;2023-06-10T06:52:35;9.38;;;7.75;;
69047;SDS011;56119;50.118;8.642;2023-06-10T06:55:01;8.13;;;6.95;;
69047;SDS011;56119;50.118;8.642;2023-06-10T06:57:27;11.32;;;7.57;;
69047;SDS011;56119;50.118;8.642;2023-06-10T06:59:53;12.00;;;7.25;;
69047;SDS011;56119;50.118;8.642;2023-06-10T07:02:19;9.90;;;7.28;;
69047;SDS011;56119;50.118;8.642;2023-06-10T07:04:45;10.73;;;7.28;;
69047;SDS011;56119;50.118;8.642;2023-06-10T07:07:13;8.43;;;7.57;;
69047;SDS011;56119;50.118;8.642;2023-06-10T07:09:40;8.30;;;6.82;;
69047;SDS011;56119;50.118;8.642;2023-06-10T07:12:06;9.82;;;7.47;;
69047;SDS011;56119;50.118;8.642;2023-06-10T07:14:32;9.60;;;7.20;;
69047;SDS011;56119;50.118;8.642;2023-06-10T07:16:58;12.13;;;7.85;;
69047;SDS011;56119;50.118;8.642;2023-06-10T07:22:27;8.93;;;6.43;;
69047;SDS011;56119;50.118;8.642;2023-06-10T07:24:53;8.20;;;6.65;;
69047;SDS011;56119;50.118;8.642;2023-06-10T07:27:20;8.55;;;7.55;;
69047;SDS011;56119;50.118;8.642;2023-06-10T07:29:46;7.82;;;6.97;;
69047;SDS011;56119;50.118;8.642;2023-06-10T07:32:13;10.57;;;7.05;;
69047;SDS011;56119;50.118;8.642;2023-06-10T07:34:46;8.55;;;7.45;;
69047;SDS011;56119;50.118;8.642;2023-06-10T07:37:27;8.60;;;7.47;;
69047;SDS011;56119;50.118;8.642;2023-06-10T07:39:53;9.50;;;7.60;;
69047;SDS011;56119;50.118;8.642;2023-06-10T07:42:19;11.93;;;7.50;;
69047;SDS011;56119;50.118;8.642;2023-06-10T07:44:45;9.32;;;7.68;;
69047;SDS011;56119;50.118;8.642;2023-06-10T07:47:11;9.45;;;7.82;;
69047;SDS011;56119;50.118;8.642;2023-06-10T07:49:37;9.07;;;7.55;;
69047;SDS011;56119;50.118;8.642;2023-06-10T07:52:09;9.52;;;7.85;;
69047;SDS011;56119;50.118;8.642;2023-06-10T07:54:37;8.88;;;6.85;;
69047;SDS011;56119;50.118;8.642;2023-06-10T07:57:03;7.97;;;6.85;;
69047;SDS011;56119;50.118;8.642;2023-06-10T07:59:30;11.20;;;7.75;;
69047;SDS011;56119;50.118;8.642;2023-06-10T08:01:56;7.90;;;6.60;;
69047;SDS011;56119;50.118;8.642;2023-06-10T08:04:21;10.18;;;7.40;;
69047;SDS011;56119;50.118;8.642;2023-06-10T08:06:47;12.02;;;7.45;;
69047;SDS011;56119;50.118;8.642;2023-06-10T08:09:13;11.55;;;7.80;;
69047;SDS011;56119;50.118;8.642;2023-06-10T08:11:39;9.32;;;8.40;;
69047;SDS011;56119;50.118;8.642;2023-06-10T08:14:05;9.43;;;6.88;;
69047;SDS011;56119;50.118;8.642;2023-06-10T08:16:31;9.63;;;7.35;;
69047;SDS011;56119;50.118;8.642;2023-06-10T08:25:05;8.18;;;7.15;;
69047;SDS011;56119;50.118;8.642;2023-06-10T08:27:31;9.10;;;6.95;;
69047;SDS011;56119;50.118;8.642;2023-06-10T08:29:57;8.70;;;6.80;;
69047;SDS011;56119;50.118;8.642;2023-06-10T08:32:25;9.55;;;6.88;;
69047;SDS011;56119;50.118;8.642;2023-06-10T08:34:51;8.48;;;6.72;;
69047;SDS011;56119;50.118;8.642;2023-06-10T08:37:17;8.43;;;7.53;;
69047;SDS011;56119;50.118;8.642;2023-06-10T08:39:43;10.40;;;6.55;;
69047;SDS011;56119;50.118;8.642;2023-06-10T08:42:11;10.32;;;8.18;;
69047;SDS011;56119;50.118;8.642;2023-06-10T08:44:40;13.48;;;7.90;;
69047;SDS011;56119;50.118;8.642;2023-06-10T08:47:16;7.88;;;6.93;;
69047;SDS011;56119;50.118;8.642;2023-06-10T08:49:43;9.32;;;7.65;;
69047;SDS011;56119;50.118;8.642;2023-06-10T08:52:22;8.35;;;7.25;;
69047;SDS011;56119;50.118;8.642;2023-06-10T08:54:53;8.85;;;7.55;;
69047;SDS011;56119;50.118;8.642;2023-06-10T08:57:21;11.02;;;7.18;;
69047;SDS011;56119;50.118;8.642;2023-06-10T08:59:47;8.25;;;6.28;;
69047;SDS011;56119;50.118;8.642;2023-06-10T09:02:32;10.00;;;7.55;;
69047;SDS011;56119;50.118;8.642;2023-06-10T09:05:12;7.40;;;6.53;;
69047;SDS011;56119;50.118;8.642;2023-06-10T09:07:42;8.40;;;7.53;;
69047;SDS011;56119;50.118;8.642;2023-06-10T09:10:08;10.63;;;7.15;;
69047;SDS011;56119;50.118;8.642;2023-06-10T09:12:34;7.68;;;6.95;;
69047;SDS011;56119;50.118;8.642;2023-06-10T09:15:03;7.97;;;7.10;;
69047;SDS011;56119;50.118;8.642;2023-06-10T09:17:29;7.28;;;6.57;;
69047;SDS011;56119;50.118;8.642;2023-06-10T09:19:55;8.25;;;6.57;;
69047;SDS011;56119;50.118;8.642;2023-06-10T09:22:22;7.10;;;6.50;;
69047;SDS011;56119;50.118;8.642;2023-06-10T09:24:48;7.78;;;7.00;;
69047;SDS011;56119;50.118;8.642;2023-06-10T09:27:14;10.07;;;7.05;;
69047;SDS011;56119;50.118;8.642;2023-06-10T09:32:13;7.85;;;6.78;;
69047;SDS011;56119;50.118;8.642;2023-06-10T09:34:39;10.40;;;6.65;;
69047;SDS011;56119;50.118;8.642;2023-06-10T09:37:06;8.13;;;6.85;;
69047;SDS011;56119;50.118;8.642;2023-06-10T09:39:33;8.15;;;5.80;;
69047;SDS011;56119;50.118;8.642;2023-06-10T09:41:59;6.85;;;6.05;;
69047;SDS011;56119;50.118;8.642;2023-06-10T09:44:25;9.35;;;7.80;;
69047;SDS011;56119;50.118;8.642;2023-06-10T09:46:52;9.52;;;6.88;;
69047;SDS011;56119;50.118;8.642;2023-06-10T09:49:19;8.32;;;7.30;;
69047;SDS011;56119;50.118;8.642;2023-06-10T09:51:52;7.03;;;6.32;;
69047;SDS011;56119;50.118;8.642;2023-06-10T09:54:19;6.90;;;6.15;;
69047;SDS011;56119;50.118;8.642;2023-06-10T09:56:49;8.70;;;6.53;;
69047;SDS011;56119;50.118;8.642;2023-06-10T09:59:15;7.32;;;6.63;;
69047;SDS011;56119;50.118;8.642;2023-06-10T10:01:41;8.32;;;6.63;;
69047;SDS011;56119;50.118;8.642;2023-06-10T10:04:07;7.97;;;6.68;;
69047;SDS011;56119;50.118;8.642;2023-06-10T10:06:33;7.78;;;6.97;;
69047;SDS011;56119;50.118;8.642;2023-06-10T10:09:00;7.13;;;6.40;;
69047;SDS011;56119;50.118;8.642;2023-06-10T10:11:26;8.10;;;6.03;;
69047;SDS011;56119;50.118;8.642;2023-06-10T10:13:52;8.95;;;7.50;;
69047;SDS011;56119;50.118;8.642;2023-06-10T10:16:20;7.82;;;6.55;;
69047;SDS011;56119;50.118;8.642;2023-06-10T10:18:51;10.10;;;7.38;;
69047;SDS011;56119;50.118;8.642;2023-06-10T10:21:20;10.23;;;7.03;;
69047;SDS011;56119;50.118;8.642;2023-06-10T10:23:53;6.90;;;6.30;;
69047;SDS011;56119;50.118;8.642;2023-06-10T10:26:23;8.40;;;7.70;;
69047;SDS011;56119;50.118;8.642;2023-06-10T10:28:53;8.48;;;7.20;;
69047;SDS011;56119;50.118;8.642;2023-06-10T10:31:28;7.38;;;6.13;;
69047;SDS011;56119;50.118;8.642;2023-06-10T10:33:58;8.50;;;6.88;;
69047;SDS011;56119;50.118;8.642;2023-06-10T10:36:24;8.52;;;7.18;;
69047;SDS011;56119;50.118;8.642;2023-06-10T10:38:54;8.95;;;7.43;;
69047;SDS011;56119;50.118;8.642;2023-06-10T10:41:20;7.55;;;6.20;;
69047;SDS011;56119;50.118;8.642;2023-06-10T10:43:46;7.22;;;6.35;;
69047;SDS011;56119;50.118;8.642;2023-06-10T10:46:14;7.50;;;6.47;;
69047;SDS011;56119;50.118;8.642;2023-06-10T10:51:36;8.15;;;5.88;;
69047;SDS011;56119;50.118;8.642;2023-06-10T10:54:15;9.63;;;6.30;;
69047;SDS011;56119;50.118;8.642;2023-06-10T10:59:43;9.52;;;6.50;;
69047;SDS011;56119;50.118;8.642;2023-06-10T11:02:09;8.32;;;5.60;;
69047;SDS011;56119;50.118;8.642;2023-06-10T11:04:35;6.82;;;5.30;;
69047;SDS011;56119;50.118;8.642;2023-06-10T11:07:07;7.10;;;6.05;;
69047;SDS011;56119;50.118;8.642;2023-06-10T11:09:33;6.53;;;5.93;;
69047;SDS011;56119;50.118;8.642;2023-06-10T11:11:59;8.10;;;5.45;;
69047;SDS011;56119;50.118;8.642;2023-06-10T11:14:28;8.40;;;6.45;;
69047;SDS011;56119;50.118;8.642;2023-06-10T11:16:58;7.68;;;5.25;;
69047;SDS011;56119;50.118;8.642;2023-06-10T11:19:34;6.00;;;5.38;;
69047;SDS011;56119;50.118;8.642;2023-06-10T11:22:01;6.05;;;5.43;;
69047;SDS011;56119;50.118;8.642;2023-06-10T11:24:28;6.45;;;5.85;;
69047;SDS011;56119;50.118;8.642;2023-06-10T11:26:54;6.35;;;5.20;;
69047;SDS011;56119;50.118;8.642;2023-06-10T11:29:20;5.43;;;4.93;;
69047;SDS011;56119;50.118;8.642;2023-06-10T11:31:50;7.22;;;5.28;;
69047;SDS011;56119;50.118;8.642;2023-06-10T11:34:21;6.53;;;5.53;;
69047;SDS011;56119;50.118;8.642;2023-06-10T11:36:52;8.07;;;5.25;;
69047;SDS011;56119;50.118;8.642;2023-06-10T11:39:19;8.65;;;5.75;;
69047;SDS011;56119;50.118;8.642;2023-06-10T11:41:46;7.55;;;6.13;;
69047;SDS011;56119;50.118;8.642;2023-06-10T11:44:13;6.65;;;5.63;;
69047;SDS011;56119;50.118;8.642;2023-06-10T11:46:40;6.80;;;5.90;;
69047;SDS011;56119;50.118;8.642;2023-06-10T11:49:11;5.90;;;5.35;;
69047;SDS011;56119;50.118;8.642;2023-06-10T11:51:38;6.18;;;5.25;;
69047;SDS011;56119;50.118;8.642;2023-06-10T11:54:06;7.63;;;5.35;;
69047;SDS011;56119;50.118;8.642;2023-06-10T11:56:32;6.28;;;5.68;;
69047;SDS011;56119;50.118;8.642;2023-06-10T11:58:59;5.55;;;5.05;;
69047;SDS011;56119;50.118;8.642;2023-06-10T12:01:30;8.25;;;5.35;;
69047;SDS011;56119;50.118;8.642;2023-06-10T12:03:57;7.85;;;5.68;;
69047;SDS011;56119;50.118;8.642;2023-06-10T12:06:24;6.85;;;4.82;;
69047;SDS011;56119;50.118;8.642;2023-06-10T12:08:50;8.27;;;5.43;;
69047;SDS011;56119;50.118;8.642;2023-06-10T12:11:16;6.47;;;5.65;;
69047;SDS011;56119;50.118;8.642;2023-06-10T12:13:46;9.18;;;5.95;;
69047;SDS011;56119;50.118;8.642;2023-06-10T12:16:15;7.10;;;5.32;;
69047;SDS011;56119;50.118;8.642;2023-06-10T12:18:46;6.80;;;5.25;;
69047;SDS011;56119;50.118;8.642;2023-06-10T12:21:17;5.55;;;4.78;;
69047;SDS011;56119;50.118;8.642;2023-06-10T12:26:45;6.28;;;5.68;;
69047;SDS011;56119;50.118;8.642;2023-06-10T12:29:12;6.28;;;5.68;;
69047;SDS011;56119;50.118;8.642;2023-06-10T12:31:58;6.05;;;5.22;;
69047;SDS011;56119;50.118;8.642;2023-06-10T12:37:03;6.97;;;5.15;;
69047;SDS011;56119;50.118;8.642;2023-06-10T12:39:30;8.85;;;5.35;;
69047;SDS011;56119;50.118;8.642;2023-06-10T12:41:57;7.15;;;5.25;;
69047;SDS011;56119;50.118;8.642;2023-06-10T12:44:29;5.95;;;5.00;;
69047;SDS011;56119;50.118;8.642;2023-06-10T12:46:55;8.20;;;5.88;;
69047;SDS011;56119;50.118;8.642;2023-06-10T12:49:21;12.52;;;6.32;;
69047;SDS011;56119;50.118;8.642;2023-06-10T12:51:47;7.93;;;5.78;;
69047;SDS011;56119;50.118;8.642;2023-06-10T12:54:14;5.75;;;5.20;;
69047;SDS011;56119;50.118;8.642;2023-06-10T12:56:40;7.65;;;6.05;;
69047;SDS011;56119;50.118;8.642;2023-06-10T12:59:06;5.90;;;5.32;;
69047;SDS011;56119;50.118;8.642;2023-06-10T13:01:32;6.22;;;5.63;;
69047;SDS011;56119;50.118;8.642;2023-06-10T13:03:58;9.40;;;5.80;;
69047;SDS011;56119;50.118;8.642;2023-06-10T13:06:24;6.60;;;5.45;;
69047;SDS011;56119;50.118;8.642;2023-06-10T13:08:51;7.45;;;5.40;;
69047;SDS011;56119;50.118;8.642;2023-06-10T13:11:17;7.55;;;5.45;;
69047;SDS011;56119;50.118;8.642;2023-06-10T13:13:43;6.45;;;4.95;;
69047;SDS011;56119;50.118;8.642;2023-06-10T13:16:11;6.70;;;5.55;;
69047;SDS011;56119;50.118;8.642;2023-06-10T13:18:37;6.18;;;5.57;;
69047;SDS011;56119;50.118;8.642;2023-06-10T13:21:03;12.52;;;6.30;;
69047;SDS011;56119;50.118;8.642;2023-06-10T13:23:29;6.38;;;5.78;;
69047;SDS011;56119;50.118;8.642;2023-06-10T13:25:56;6.15;;;5.40;;
69047;SDS011;56119;50.118;8.642;2023-06-10T13:28:22;9.10;;;7.10;;
69047;SDS011;56119;50.118;8.642;2023-06-10T13:30:48;8.18;;;5.70;;
69047;SDS011;56119;50.118;8.642;2023-06-10T13:33:15;6.75;;;5.85;;
69047;SDS011;56119;50.118;8.642;2023-06-10T13:35:41;6.75;;;6.15;;
69047;SDS011;56119;50.118;8.642;2023-06-10T13:38:07;5.90;;;5.18;;
69047;SDS011;56119;50.118;8.642;2023-06-10T13:40:33;7.15;;;5.80;;
69047;SDS011;56119;50.118;8.642;2023-06-10T13:42:59;6.28;;;5.40;;
69047;SDS011;56119;50.118;8.642;2023-06-10T13:45:25;6.97;;;6.28;;
69047;SDS011;56119;50.118;8.642;2023-06-10T13:47:53;6.82;;;5.60;;
69047;SDS011;56119;50.118;8.642;2023-06-10T13:50:19;5.95;;;5.22;;
69047;SDS011;56119;50.118;8.642;2023-06-10T13:52:45;5.93;;;5.43;;
69047;SDS011;56119;50.118;8.642;2023-06-10T13:55:11;6.00;;;5.32;;
69047;SDS011;56119;50.118;8.642;2023-06-10T13:57:37;6.18;;;5.57;;
69047;SDS011;56119;50.118;8.642;2023-06-10T14:00:03;5.25;;;4.07;;
69047;SDS011;56119;50.118;8.642;2023-06-10T14:02:30;7.68;;;5.00;;
69047;SDS011;56119;50.118;8.642;2023-06-10T14:04:56;6.32;;;4.43;;
69047;SDS011;56119;50.118;8.642;2023-06-10T14:07:23;5.93;;;4.13;;
69047;SDS011;56119;50.118;8.642;2023-06-10T14:09:51;5.15;;;4.65;;
69047;SDS011;56119;50.118;8.642;2023-06-10T14:12:17;4.78;;;4.25;;
69047;SDS011;56119;50.118;8.642;2023-06-10T14:14:43;5.57;;;4.72;;
69047;SDS011;56119;50.118;8.642;2023-06-10T14:17:09;6.03;;;5.00;;
69047;SDS011;56119;50.118;8.642;2023-06-10T14:19:35;6.00;;;4.75;;
69047;SDS011;56119;50.118;8.642;2023-06-10T14:22:01;6.63;;;5.00;;
69047;SDS011;56119;50.118;8.642;2023-06-10T14:24:27;5.32;;;4.82;;
69047;SDS011;56119;50.118;8.642;2023-06-10T14:26:53;5.00;;;4.50;;
69047;SDS011;56119;50.118;8.642;2023-06-10T14:29:19;4.20;;;3.80;;
69047;SDS011;56119;50.118;8.642;2023-06-10T14:31:45;8.70;;;4.88;;
69047;SDS011;56119;50.118;8.642;2023-06-10T14:34:11;6.75;;;5.32;;
69047;SDS011;56119;50.118;8.642;2023-06-10T14:36:37;6.22;;;4.82;;
69047;SDS011;56119;50.118;8.642;2023-06-10T14:39:03;5.15;;;4.65;;
69047;SDS011;56119;50.118;8.642;2023-06-10T14:41:29;5.53;;;4.90;;
69047;SDS011;56119;50.118;8.642;2023-06-10T14:43:55;4.60;;;3.95;;
69047;SDS011;56119;50.118;8.642;2023-06-10T14:46:25;5.03;;;4.53;;
69047;SDS011;56119;50.118;8.642;2023-06-10T14:48:51;5.05;;;4.20;;
69047;SDS011;56119;50.118;8.642;2023-06-10T14:51:18;4.82;;;4.18;;
69047;SDS011;56119;50.118;8.642;2023-06-10T14:53:45;5.28;;;4.60;;
69047;SDS011;56119;50.118;8.642;2023-06-10T14:56:11;4.82;;;4.30;;
69047;SDS011;56119;50.118;8.642;2023-06-10T14:58:37;4.85;;;4.40;;
69047;SDS011;56119;50.118;8.642;2023-06-10T15:01:03;6.03;;;4.03;;
69047;SDS011;56119;50.118;8.642;2023-06-10T15:03:29;5.63;;;5.03;;
69047;SDS011;56119;50.118;8.642;2023-06-10T15:05:55;7.18;;;5.25;;
69047;SDS011;56119;50.118;8.642;2023-06-10T15:08:21;4.88;;;4.40;;